KBIH/BIH METAR and TAF weather

Enter ICAO airport designator
Station Type Date Time Source
KBIH METAR 2019/12/13 21:56 UTC NOAA

KBIH 132156Z AUTO 02003KT 10SM SCT100 SCT120 14/02 A3000 RMK AO2 SLP143 T01390017


Station Type Date Time Source
KBIH Decoded METAR 2019/12/13 21:56 UTC NOAA

BISHOP AIRPORT, CA, United States (KBIH) 37-22N 118-22W 1253M
Dec 13, 2019 - 04:56 PM EST / 2019.12.13 2156 UTC
Wind: from the NNE (020 degrees) at 3 MPH (3 KT):0
Visibility: 10 mile(s):0
Sky conditions: partly cloudy
Temperature: 57.0 F (13.9 C)
Dew Point: 35.1 F (1.7 C)
Relative Humidity: 43%
Pressure (altimeter): 30 in. Hg (1015 hPa)
ob: KBIH 132156Z AUTO 02003KT 10SM SCT100 SCT120 14/02 A3000 RMK AO2 SLP143 T01390017
cycle: 22

Station Type Date Time Source
KBIH TAF 2019/12/13 18:36 UTC NOAA

TAF KBIH 131734Z 1318/1418 VRB05KT P6SM FEW070 SCT110 SCT200
FM132300 33010KT P6SM SCT070 BKN110
FM140300 06005KT P6SM VCSH BKN070 OVC110
FM140900 34007KT P6SM BKN200

Example: see airport list